Route Details

Aircraft Information
Group: Large Widebodies
Types: B744, MD11
Route Data
Distance: 3599nm
Duration: 8h 00m
Origin METAR: SCEL 160100Z 17004KT 9999 OVC120 10/06 Q1024 NOSIG
Dest. METAR: KMIA 160053Z 00000KT 10SM FEW025 BKN250 27/24 A2993 RMK AO2 SLP136 T02720244
Freight Data
(for Aug 16, 2022)
Load Factor:
36%
Manifested Cargo: 79,566lbs
Financial History
Total Freight: 1,107,759lbs
Average Load: 0lbs/flt
Fuel Used: 1,053,440lbs
Avg. Fuel Used: 0lbs/flt
Fuel Expense: $649,968
Avg. Fuel Expense: $0
Avg. Fuel Cost: $0/lbs
Total Gross Income: $3,149,045
Pilot Pay: $1,314
Total Expenses: $385,669
Total Revenue: $2,099,821
Average Revenue: $0

Capitol Logistics 707




SCEL
Arturo Merino Benitez International Airport
Santiago, CL
KMIA
Miami International Airport
Miami, US